Time;durP1;ratioP1;P1;durP2;ratioP2;P2;SDS_P1;SDS_P2;PMS_P1;PMS_P2;Temp;Humidity;BMP_temperature;BMP_pressure;BME280_temperature;BME280_humidity;BME280_pressure;Samples;Min_cycle;Max_cycle;Signal;HPM_P1;HPM_P2
2023/04/02 00:00:09;;;;;;;8.73;3.65;;;5.90;99.90;;;;;;4941375;28;20050;-82
2023/04/02 00:02:55;;;;;;;7.93;3.60;;;5.90;99.90;;;;;;4957432;28;20058;-81
2023/04/02 00:05:29;;;;;;;8.70;3.55;;;5.90;99.90;;;;;;4973687;28;20050;-80
2023/04/02 00:08:24;;;;;;;8.43;3.40;;;5.90;99.90;;;;;;4974258;28;20046;-81
2023/04/02 00:11:01;;;;;;;8.38;3.03;;;6.00;99.90;;;;;;4933853;28;20141;-80
2023/04/02 00:13:34;;;;;;;7.85;3.17;;;6.00;99.90;;;;;;4977268;28;20053;-81
2023/04/02 00:16:02;;;;;;;6.72;3.50;;;6.00;99.90;;;;;;4971387;28;20042;-82
2023/04/02 00:18:28;;;;;;;15.18;2.97;;;6.00;99.90;;;;;;4971040;28;20066;-82
2023/04/02 00:21:18;;;;;;;8.23;3.10;;;6.00;99.90;;;;;;4973446;28;20051;-82
2023/04/02 00:23:44;;;;;;;8.05;3.20;;;5.90;99.90;;;;;;4950523;28;20043;-80
2023/04/02 00:26:35;;;;;;;9.55;2.90;;;5.90;99.90;;;;;;4961279;28;20050;-81
2023/04/02 00:29:02;;;;;;;7.07;2.67;;;5.90;99.90;;;;;;4957799;28;20054;-81
2023/04/02 00:31:29;;;;;;;6.90;2.85;;;5.90;99.90;;;;;;4965327;28;20046;-81
2023/04/02 00:33:56;;;;;;;7.82;3.00;;;5.80;99.90;;;;;;4971627;28;20556;-81
2023/04/02 00:36:25;;;;;;;7.75;2.95;;;5.80;99.90;;;;;;4975446;28;20053;-81
2023/04/02 00:38:54;;;;;;;10.07;3.08;;;5.80;99.90;;;;;;4965288;28;20113;-80
2023/04/02 00:41:26;;;;;;;7.72;2.67;;;5.80;99.90;;;;;;4969205;28;20068;-82
2023/04/02 00:43:53;;;;;;;11.48;3.35;;;5.70;99.90;;;;;;4974181;28;20047;-81
2023/04/02 00:46:22;;;;;;;8.30;3.22;;;5.70;99.90;;;;;;4961143;28;20118;-81
2023/04/02 00:49:09;;;;;;;7.43;2.72;;;5.60;99.90;;;;;;4964658;28;20580;-81
2023/04/02 00:51:40;;;;;;;5.88;2.80;;;5.60;99.90;;;;;;4976066;28;20055;-82
2023/04/02 00:54:14;;;;;;;8.57;2.90;;;5.50;99.90;;;;;;4971124;28;20152;-81
2023/04/02 00:56:45;;;;;;;6.75;3.00;;;5.50;99.90;;;;;;4978232;28;20042;-81
2023/04/02 00:59:32;;;;;;;7.93;2.72;;;5.40;99.90;;;;;;4963868;28;20083;-80
2023/04/02 01:02:17;;;;;;;8.55;2.72;;;5.40;99.90;;;;;;4966523;28;20043;-81
2023/04/02 01:04:56;;;;;;;5.63;2.40;;;5.40;99.90;;;;;;4968039;28;20146;-81
2023/04/02 01:07:47;;;;;;;6.20;2.75;;;5.40;99.90;;;;;;4968617;28;20497;-81
2023/04/02 01:10:15;;;;;;;6.53;2.88;;;5.30;99.90;;;;;;4953276;28;20064;-81
2023/04/02 01:13:16;;;;;;;8.60;2.95;;;5.30;99.90;;;;;;4966664;28;20756;-80
2023/04/02 01:15:55;;;;;;;9.35;3.20;;;5.30;99.90;;;;;;4978781;28;20512;-81
2023/04/02 01:18:45;;;;;;;6.05;3.03;;;5.20;99.90;;;;;;4966562;28;20055;-81
2023/04/02 01:21:20;;;;;;;6.22;2.53;;;5.20;99.90;;;;;;4967520;28;20046;-81
2023/04/02 01:24:29;;;;;;;5.95;2.63;;;5.20;99.90;;;;;;4976979;28;20039;-81
2023/04/02 01:26:58;;;;;;;6.68;3.00;;;5.20;99.90;;;;;;4937734;28;20046;-81
2023/04/02 01:29:26;;;;;;;6.38;2.85;;;5.10;99.90;;;;;;4924494;28;20039;-81
2023/04/02 01:31:56;;;;;;;6.07;2.88;;;5.10;99.90;;;;;;4925133;29;20062;-81
2023/04/02 01:34:25;;;;;;;8.75;3.33;;;5.00;99.90;;;;;;4936838;28;20043;-81
2023/04/02 01:37:21;;;;;;;10.40;3.05;;;5.00;99.90;;;;;;4922828;28;20061;-81
2023/04/02 01:40:14;;;;;;;10.25;2.80;;;5.00;99.90;;;;;;4923087;29;20051;-82
2023/04/02 01:42:54;;;;;;;6.72;2.80;;;4.90;99.90;;;;;;4937928;28;20467;-82
2023/04/02 01:45:21;;;;;;;6.80;2.63;;;4.80;99.90;;;;;;4923565;28;20094;-82
2023/04/02 01:47:48;;;;;;;8.23;2.63;;;4.80;99.90;;;;;;4919489;28;20043;-82
2023/04/02 01:50:31;;;;;;;6.43;2.75;;;4.80;99.90;;;;;;4939060;28;20174;-82
2023/04/02 01:53:00;;;;;;;8.57;3.33;;;4.80;99.90;;;;;;4940198;28;20362;-82
2023/04/02 01:55:38;;;;;;;7.70;2.80;;;4.70;99.90;;;;;;4938934;28;20047;-81
2023/04/02 01:58:04;;;;;;;8.32;2.00;;;4.70;99.90;;;;;;4959125;28;20396;-81
2023/04/02 02:00:33;;;;;;;9.40;2.83;;;4.70;99.90;;;;;;4952133;28;20054;-81
2023/04/02 02:03:05;;;;;;;6.65;2.17;;;4.60;99.90;;;;;;4967198;28;20072;-82
2023/04/02 02:05:31;;;;;;;6.65;2.30;;;4.60;99.90;;;;;;4953171;28;20077;-82
2023/04/02 02:08:00;;;;;;;8.90;2.20;;;4.80;99.90;;;;;;4968631;28;20163;-81
2023/04/02 02:10:38;;;;;;;6.60;2.05;;;4.50;99.90;;;;;;4966497;28;20082;-81
2023/04/02 02:13:03;;;;;;;6.85;2.35;;;4.50;99.90;;;;;;4968072;28;20051;-81
2023/04/02 02:15:34;;;;;;;5.07;1.95;;;4.50;99.90;;;;;;4972173;28;20073;-81
2023/04/02 02:18:05;;;;;;;5.53;2.05;;;4.50;99.90;;;;;;4973168;28;20085;-81
2023/04/02 02:20:32;;;;;;;5.82;2.22;;;4.40;99.90;;;;;;4970205;28;20050;-81
2023/04/02 02:23:00;;;;;;;7.50;2.00;;;4.40;99.90;;;;;;4966906;28;20377;-81
2023/04/02 02:25:34;;;;;;;5.07;1.98;;;4.70;99.90;;;;;;4967429;28;20039;-80
2023/04/02 02:28:00;;;;;;;;;;;4.30;99.90;;;;;;4969013;28;20500;-80
2023/04/02 02:30:43;;;;;;;5.85;1.88;;;4.30;99.90;;;;;;4970495;28;20041;-80
2023/04/02 02:33:22;;;;;;;8.82;2.00;;;4.30;99.90;;;;;;4969268;28;20055;-81
2023/04/02 02:35:59;;;;;;;6.75;1.60;;;4.20;99.90;;;;;;4973896;28;20485;-80
2023/04/02 02:38:37;;;;;;;5.20;1.83;;;4.20;99.90;;;;;;4969637;28;20055;-81
2023/04/02 02:41:21;;;;;;;8.77;2.03;;;4.10;99.90;;;;;;4975069;28;20165;-81
2023/04/02 02:44:15;;;;;;;5.35;1.75;;;4.10;99.90;;;;;;4964419;28;20038;-81
2023/04/02 02:47:19;;;;;;;8.40;2.85;;;4.10;99.90;;;;;;4970612;28;20477;-81
2023/04/02 02:49:55;;;;;;;6.50;1.60;;;4.00;99.90;;;;;;4966188;28;20145;-82
2023/04/02 02:52:28;;;;;;;5.20;1.48;;;3.90;99.90;;;;;;4979506;28;20046;-82
2023/04/02 02:55:00;;;;;;;6.45;1.40;;;3.90;99.90;;;;;;4967984;28;20555;-82
2023/04/02 02:57:34;;;;;;;6.18;1.95;;;3.90;99.90;;;;;;4957897;28;20089;-82
2023/04/02 03:00:03;;;;;;;6.45;1.80;;;3.80;99.90;;;;;;4959718;28;20051;-81
2023/04/02 03:02:28;;;;;;;4.88;1.10;;;3.80;99.90;;;;;;4978273;28;20790;-82
2023/04/02 03:04:55;;;;;;;4.82;1.60;;;3.80;99.90;;;;;;4971492;28;20137;-81
2023/04/02 03:07:25;;;;;;;7.82;1.40;;;3.70;99.90;;;;;;4955362;28;20124;-81
2023/04/02 03:10:26;;;;;;;4.43;1.40;;;3.80;99.90;;;;;;4977009;28;20046;-81
2023/04/02 03:12:55;;;;;;;6.40;1.63;;;3.70;99.90;;;;;;4978206;28;20043;-81
2023/04/02 03:15:36;;;;;;;5.18;1.13;;;3.70;99.90;;;;;;4966638;28;20492;-81
2023/04/02 03:18:33;;;;;;;5.65;1.20;;;4.30;99.90;;;;;;4975242;28;20038;-82
2023/04/02 03:21:11;;;;;;;4.25;1.00;;;3.60;99.90;;;;;;4968607;28;20164;-82
2023/04/02 03:23:49;;;;;;;7.22;1.95;;;3.60;99.90;;;;;;4970471;28;20081;-80
2023/04/02 03:26:42;;;;;;;6.85;1.60;;;3.60;99.90;;;;;;4964481;28;20113;-81
2023/04/02 03:29:18;;;;;;;3.55;1.20;;;3.50;99.90;;;;;;4967983;28;20177;-81
2023/04/02 03:31:53;;;;;;;3.95;1.10;;;3.50;99.90;;;;;;4964224;28;20042;-81
2023/04/02 03:34:32;;;;;;;7.80;1.27;;;4.00;99.90;;;;;;4969361;28;20053;-81
2023/04/02 03:37:18;;;;;;;5.60;1.10;;;3.50;99.90;;;;;;4976490;28;20492;-81
2023/04/02 03:40:10;;;;;;;4.60;1.20;;;3.50;99.90;;;;;;4983009;28;20105;-81
2023/04/02 03:42:51;;;;;;;;;;;3.50;99.90;;;;;;4955125;28;20792;-81
2023/04/02 03:45:31;;;;;;;6.55;1.10;;;3.50;99.90;;;;;;4963365;28;19922;-81
2023/04/02 03:48:22;;;;;;;3.67;1.70;;;3.50;99.90;;;;;;4968781;28;20047;-81
2023/04/02 03:50:58;;;;;;;3.97;2.15;;;3.40;99.90;;;;;;4973635;28;21876;-81
2023/04/02 03:53:27;;;;;;;3.80;1.10;;;3.50;99.90;;;;;;4965801;28;20046;-81
2023/04/02 03:55:54;;;;;;;3.10;0.80;;;3.50;99.90;;;;;;4968371;28;20117;-81
2023/04/02 03:58:30;;;;;;;8.48;1.15;;;3.50;99.90;;;;;;4951877;28;20109;-81
2023/04/02 04:01:21;;;;;;;4.47;1.02;;;3.50;99.90;;;;;;4967939;28;20062;-81
2023/04/02 04:03:54;;;;;;;4.72;0.98;;;3.50;99.90;;;;;;4968098;28;20054;-81
2023/04/02 04:06:29;;;;;;;7.65;2.20;;;3.40;99.90;;;;;;4970749;28;20092;-81
2023/04/02 04:09:00;;;;;;;4.95;1.05;;;3.40;99.90;;;;;;4966222;28;20279;-81
2023/04/02 04:11:32;;;;;;;4.22;0.80;;;3.40;99.90;;;;;;4969738;28;20077;-81
2023/04/02 04:14:01;;;;;;;4.07;1.30;;;3.40;99.90;;;;;;4976647;28;20505;-80
2023/04/02 04:16:38;;;;;;;5.72;1.35;;;3.40;99.90;;;;;;4970637;28;20058;-81
2023/04/02 04:19:18;;;;;;;7.43;1.52;;;3.40;99.90;;;;;;4968531;28;20604;-81
2023/04/02 04:21:45;;;;;;;3.85;0.93;;;3.40;99.90;;;;;;4971493;28;20066;-81
2023/04/02 04:24:22;;;;;;;3.55;1.30;;;3.30;99.90;;;;;;4970188;28;20129;-81
2023/04/02 04:27:08;;;;;;;5.43;1.25;;;3.30;99.90;;;;;;4965958;28;20048;-82
2023/04/02 04:30:06;;;;;;;5.13;1.20;;;3.70;99.90;;;;;;4968584;28;20031;-81
2023/04/02 04:32:48;;;;;;;4.00;1.10;;;3.30;99.90;;;;;;4952962;28;20050;-81
2023/04/02 04:35:23;;;;;;;3.45;1.00;;;3.30;99.90;;;;;;4968358;28;20059;-81
2023/04/02 04:38:02;;;;;;;4.07;0.88;;;3.20;99.90;;;;;;4961447;28;20417;-81
2023/04/02 04:40:35;;;;;;;6.75;1.30;;;3.20;99.90;;;;;;4968103;28;20567;-81
2023/04/02 04:43:06;;;;;;;5.30;1.10;;;3.20;99.90;;;;;;4965324;28;20638;-81
2023/04/02 04:45:55;;;;;;;4.90;1.00;;;3.20;99.90;;;;;;4966601;28;20039;-81
2023/04/02 04:48:32;;;;;;;5.57;1.45;;;3.10;99.90;;;;;;4976841;28;20429;-81
2023/04/02 04:51:23;;;;;;;3.75;1.42;;;3.20;99.90;;;;;;4953919;28;20050;-81
2023/04/02 04:53:52;;;;;;;5.35;1.10;;;3.20;99.90;;;;;;4964351;28;20058;-80
2023/04/02 04:56:23;;;;;;;5.75;1.10;;;3.20;99.90;;;;;;4971977;28;20049;-81
2023/04/02 04:58:55;;;;;;;6.82;1.27;;;3.20;99.90;;;;;;4967052;28;20049;-81
2023/04/02 05:01:38;;;;;;;4.30;1.15;;;3.20;99.90;;;;;;4958215;28;20046;-81
2023/04/02 05:04:25;;;;;;;5.13;1.08;;;3.10;99.90;;;;;;4967249;28;20612;-81
2023/04/02 05:06:59;;;;;;;11.43;1.25;;;3.20;99.90;;;;;;4970129;28;20066;-81
2023/04/02 05:09:41;;;;;;;6.30;1.13;;;3.10;99.90;;;;;;4963460;28;20564;-81
2023/04/02 05:12:42;;;;;;;5.32;1.20;;;3.10;99.90;;;;;;4966934;28;20583;-81
2023/04/02 05:15:20;;;;;;;3.65;1.23;;;3.10;99.90;;;;;;4975747;28;20039;-81
2023/04/02 05:18:04;;;;;;;7.15;1.75;;;3.10;99.90;;;;;;4969961;28;20118;-80
2023/04/02 05:20:59;;;;;;;4.78;1.40;;;3.10;99.90;;;;;;4965847;28;20134;-81
2023/04/02 05:23:27;;;;;;;;;;;3.10;99.90;;;;;;4967338;28;20050;-80
2023/04/02 05:26:15;;;;;;;5.55;1.10;;;3.10;99.90;;;;;;4964399;28;20383;-81
2023/04/02 05:29:00;;;;;;;4.78;1.00;;;3.00;99.90;;;;;;4977142;28;20670;-81
2023/04/02 05:31:37;;;;;;;7.18;1.27;;;3.00;99.90;;;;;;4970109;28;20113;-81
2023/04/02 05:34:03;;;;;;;4.00;1.17;;;3.10;99.90;;;;;;4968386;28;20580;-81
2023/04/02 05:36:30;;;;;;;7.47;1.23;;;3.50;99.90;;;;;;4960685;28;20038;-80
2023/04/02 05:38:57;;;;;;;8.30;1.30;;;3.00;99.90;;;;;;4969041;28;20175;-81
2023/04/02 05:41:41;;;;;;;5.80;1.40;;;3.00;99.90;;;;;;4977620;28;20046;-82
2023/04/02 05:44:17;;;;;;;5.45;1.30;;;3.00;99.90;;;;;;4969612;28;20047;-82
2023/04/02 05:46:52;;;;;;;6.13;1.35;;;3.00;99.90;;;;;;4972852;28;20070;-81
2023/04/02 05:49:26;;;;;;;4.13;1.08;;;3.00;99.90;;;;;;4970459;28;20046;-84
2023/04/02 05:51:55;;;;;;;7.85;1.27;;;3.00;99.90;;;;;;4970659;28;20057;-84
2023/04/02 05:54:33;;;;;;;7.50;1.30;;;3.00;99.90;;;;;;4971418;28;20162;-84
2023/04/02 05:57:22;;;;;;;7.18;0.93;;;3.10;99.90;;;;;;4974418;28;20089;-82
2023/04/02 05:59:54;;;;;;;2.30;0.98;;;3.10;99.90;;;;;;4969304;28;20101;-83
2023/04/02 06:02:41;;;;;;;5.72;1.15;;;3.10;99.90;;;;;;4979028;28;20045;-82
2023/04/02 06:05:19;;;;;;;8.48;1.60;;;3.00;99.90;;;;;;4970704;28;20410;-83
2023/04/02 06:07:53;;;;;;;6.38;1.20;;;3.10;99.90;;;;;;4971799;28;20361;-82
2023/04/02 06:10:30;;;;;;;4.45;0.90;;;3.10;99.90;;;;;;4973195;28;20584;-82
2023/04/02 06:13:04;;;;;;;3.72;1.08;;;3.10;99.90;;;;;;4973245;28;20542;-82
2023/04/02 06:15:32;;;;;;;4.15;1.10;;;3.10;99.90;;;;;;4968276;28;20081;-81
2023/04/02 06:18:04;;;;;;;2.58;1.10;;;3.10;99.90;;;;;;4973069;28;20046;-82
2023/04/02 06:20:31;;;;;;;6.95;1.17;;;3.10;99.90;;;;;;4959351;28;20154;-82
2023/04/02 06:23:18;;;;;;;5.55;1.30;;;3.20;99.90;;;;;;4974110;28;20077;-85
2023/04/02 06:25:50;;;;;;;9.40;1.23;;;3.20;99.90;;;;;;4967765;28;20059;-88
2023/04/02 06:28:28;;;;;;;4.85;1.10;;;3.20;99.90;;;;;;4969321;28;20456;-88
2023/04/02 06:30:58;;;;;;;7.32;1.63;;;3.20;99.90;;;;;;4976023;28;20124;-84
2023/04/02 06:33:24;;;;;;;6.35;1.40;;;3.20;99.90;;;;;;4975203;28;20196;-87
2023/04/02 06:35:51;;;;;;;7.50;1.25;;;3.30;99.90;;;;;;4978027;28;20038;-85
2023/04/02 06:38:26;;;;;;;2.13;0.98;;;3.30;99.90;;;;;;4972638;28;20070;-88
2023/04/02 06:41:00;;;;;;;4.47;1.10;;;3.40;99.90;;;;;;4966349;28;20050;-85
2023/04/02 06:43:55;;;;;;;4.38;1.20;;;3.40;99.90;;;;;;4974836;28;20129;-84
2023/04/02 06:46:44;;;;;;;3.45;0.90;;;3.50;99.90;;;;;;4978596;28;20045;-85
2023/04/02 06:49:20;;;;;;;3.90;1.00;;;3.50;99.90;;;;;;4959653;28;20053;-85
2023/04/02 06:51:47;;;;;;;4.45;1.08;;;3.60;99.90;;;;;;4985079;28;20108;-86
2023/04/02 06:54:15;;;;;;;4.95;0.93;;;3.60;99.90;;;;;;4963034;28;20057;-86
2023/04/02 06:56:50;;;;;;;6.00;0.85;;;3.60;99.90;;;;;;4974205;28;20438;-85
2023/04/02 06:59:17;;;;;;;5.10;2.05;;;3.60;99.90;;;;;;4982063;28;20081;-86
2023/04/02 07:02:05;;;;;;;5.57;1.40;;;3.70;99.90;;;;;;4981830;28;20125;-86
2023/04/02 07:04:31;;;;;;;5.55;0.90;;;3.70;99.90;;;;;;4962953;28;20498;-84
2023/04/02 07:06:58;;;;;;;4.30;1.33;;;3.60;99.90;;;;;;5020020;22;20076;-86
2023/04/02 07:09:24;;;;;;;5.78;0.98;;;3.70;99.90;;;;;;5022367;28;20156;-85
2023/04/02 07:11:53;;;;;;;3.60;0.80;;;3.70;99.90;;;;;;4994511;28;20050;-86
2023/04/02 07:14:19;;;;;;;5.03;1.38;;;4.70;99.90;;;;;;5003311;28;20046;-84
2023/04/02 07:16:45;;;;;;;6.90;1.02;;;3.70;99.90;;;;;;5001839;28;20042;-84
2023/04/02 07:19:20;;;;;;;4.53;0.80;;;3.80;99.90;;;;;;5002296;28;20042;-85
2023/04/02 07:21:46;;;;;;;3.80;1.13;;;3.80;99.90;;;;;;5007096;28;20056;-84
2023/04/02 07:24:13;;;;;;;4.70;0.93;;;3.80;99.90;;;;;;5009457;28;20049;-84
2023/04/02 07:26:38;;;;;;;4.00;0.80;;;3.80;99.90;;;;;;4997509;28;20150;-86
2023/04/02 07:29:12;;;;;;;4.50;1.00;;;3.90;99.90;;;;;;5014203;28;20152;-84
2023/04/02 07:31:39;;;;;;;7.37;0.97;;;3.90;99.90;;;;;;5009642;28;20037;-85
2023/04/02 07:34:09;;;;;;;5.88;0.88;;;3.90;99.90;;;;;;5011382;28;20058;-86
2023/04/02 07:36:35;;;;;;;5.60;0.90;;;3.90;99.90;;;;;;5010629;28;20042;-84
2023/04/02 07:39:02;;;;;;;4.25;1.00;;;3.90;99.90;;;;;;5016221;28;20044;-85
2023/04/02 07:41:30;;;;;;;3.50;1.00;;;4.00;99.90;;;;;;5007905;28;20107;-81
2023/04/02 07:43:56;;;;;;;5.00;0.90;;;4.00;99.90;;;;;;5017378;28;20073;-85
2023/04/02 07:46:21;;;;;;;5.88;0.90;;;4.10;99.90;;;;;;4988045;28;20058;-84
2023/04/02 07:48:50;;;;;;;5.20;1.00;;;4.10;99.90;;;;;;5016522;28;20046;-84
2023/04/02 07:51:25;;;;;;;3.72;1.00;;;4.20;99.90;;;;;;5015157;28;20044;-84
2023/04/02 07:53:54;;;;;;;4.05;0.80;;;4.20;99.90;;;;;;5008227;28;20053;-84
2023/04/02 07:56:22;;;;;;;5.60;1.20;;;4.30;99.90;;;;;;4991136;28;20164;-84
2023/04/02 07:58:49;;;;;;;5.53;0.73;;;4.30;99.90;;;;;;5007556;28;20144;-84
2023/04/02 08:01:22;;;;;;;8.00;1.23;;;4.40;99.90;;;;;;5009298;28;20192;-85
2023/04/02 08:03:49;;;;;;;4.80;2.08;;;4.40;99.90;;;;;;5004024;28;20053;-84
2023/04/02 08:06:15;;;;;;;5.45;1.00;;;4.50;99.90;;;;;;5007858;28;20107;-85
2023/04/02 08:08:42;;;;;;;6.03;1.55;;;4.80;99.90;;;;;;4992926;28;20606;-86
2023/04/02 08:11:08;;;;;;;4.35;1.08;;;4.60;99.90;;;;;;5012099;28;20042;-86
2023/04/02 08:13:34;;;;;;;4.00;0.85;;;4.70;99.90;;;;;;4990316;28;20053;-86
2023/04/02 08:16:02;;;;;;;7.68;1.20;;;4.80;99.90;;;;;;5006480;28;20077;-85
2023/04/02 08:18:29;;;;;;;4.93;0.90;;;5.50;99.90;;;;;;4999004;28;20047;-86
2023/04/02 08:20:59;;;;;;;5.90;1.23;;;4.70;99.90;;;;;;5002952;28;20180;-88
2023/04/02 08:23:25;;;;;;;5.30;0.98;;;4.80;99.90;;;;;;5004175;28;20064;-85
2023/04/02 08:25:52;;;;;;;3.75;0.88;;;4.90;99.90;;;;;;5007258;28;20041;-85
2023/04/02 08:28:20;;;;;;;7.10;1.33;;;4.90;99.90;;;;;;5007222;28;20042;-83
2023/04/02 08:30:47;;;;;;;7.03;1.15;;;5.00;99.90;;;;;;4988046;28;20095;-84
2023/04/02 08:33:14;;;;;;;2.47;0.50;;;5.00;99.90;;;;;;5008141;28;20153;-83
2023/04/02 08:35:40;;;;;;;3.55;1.27;;;5.10;99.90;;;;;;4987063;28;20135;-81
2023/04/02 08:38:06;;;;;;;3.58;0.82;;;5.10;99.90;;;;;;5018657;28;20120;-84
2023/04/02 08:40:37;;;;;;;6.55;1.10;;;5.10;99.90;;;;;;5015198;28;20396;-84
2023/04/02 08:43:40;;;;;;;6.18;1.23;;;5.10;99.90;;;;;;5009952;28;20034;-82
2023/04/02 08:46:32;;;;;;;3.47;0.80;;;5.10;99.90;;;;;;4982397;28;20098;-85
2023/04/02 08:49:03;;;;;;;5.47;0.98;;;5.00;99.90;;;;;;4988375;28;20480;-81
2023/04/02 08:51:33;;;;;;;4.47;0.90;;;5.20;99.90;;;;;;5000477;28;20586;-81
2023/04/02 08:54:04;;;;;;;6.40;0.95;;;5.10;99.90;;;;;;5006658;28;20371;-83
2023/04/02 08:56:42;;;;;;;3.15;1.13;;;5.20;99.90;;;;;;4986353;28;20052;-83
2023/04/02 08:59:29;;;;;;;4.10;0.90;;;5.30;99.90;;;;;;5005013;28;20095;-84
2023/04/02 09:02:01;;;;;;;6.35;0.80;;;5.40;99.90;;;;;;4993384;28;20505;-83
2023/04/02 09:04:27;;;;;;;4.55;1.08;;;5.50;99.90;;;;;;4994093;28;20046;-84
2023/04/02 09:06:56;;;;;;;3.08;0.93;;;5.60;99.90;;;;;;5002106;28;20066;-86
2023/04/02 09:09:23;;;;;;;5.00;1.35;;;5.70;99.90;;;;;;4998254;28;20045;-87
2023/04/02 09:12:02;;;;;;;5.05;1.00;;;5.80;99.90;;;;;;5008530;28;20101;-84
2023/04/02 09:14:58;;;;;;;4.50;0.80;;;6.00;99.90;;;;;;5002241;28;20145;-85
2023/04/02 09:17:25;;;;;;;5.15;0.80;;;6.30;99.90;;;;;;4996071;28;20107;-84
2023/04/02 09:20:15;;;;;;;2.90;0.90;;;6.40;99.90;;;;;;4999275;28;20593;-84
2023/04/02 09:22:43;;;;;;;3.50;0.80;;;6.50;99.90;;;;;;4978947;28;20049;-84
2023/04/02 09:25:17;;;;;;;5.30;0.90;;;6.60;99.90;;;;;;4996093;28;20038;-84
2023/04/02 09:27:47;;;;;;;5.03;0.80;;;6.80;99.90;;;;;;4997783;28;20484;-84
2023/04/02 09:30:29;;;;;;;6.72;1.05;;;6.70;99.90;;;;;;4999295;28;20129;-84
2023/04/02 09:32:57;;;;;;;4.43;1.00;;;6.80;99.90;;;;;;4993006;28;20140;-83
2023/04/02 09:35:28;;;;;;;2.95;0.73;;;7.00;99.90;;;;;;4996310;28;20049;-84
2023/04/02 09:38:09;;;;;;;4.10;1.00;;;7.10;99.90;;;;;;5004752;28;20045;-84
2023/04/02 09:40:58;;;;;;;6.55;0.88;;;7.20;99.90;;;;;;5003586;28;20042;-84
2023/04/02 09:43:35;;;;;;;3.28;0.70;;;7.30;99.90;;;;;;4999142;28;20585;-83
2023/04/02 09:46:17;;;;;;;5.22;0.80;;;7.40;99.90;;;;;;4994307;28;20046;-83
2023/04/02 09:48:59;;;;;;;5.82;0.80;;;7.50;99.90;;;;;;4996192;28;20092;-83
2023/04/02 09:51:32;;;;;;;5.53;0.90;;;7.50;99.90;;;;;;5004219;28;20057;-83
2023/04/02 09:54:03;;;;;;;5.57;0.90;;;7.60;99.90;;;;;;4990076;28;20054;-83
2023/04/02 09:56:31;;;;;;;6.32;0.77;;;7.70;99.90;;;;;;4994445;28;20046;-83
2023/04/02 09:59:14;;;;;;;4.03;0.82;;;7.80;99.90;;;;;;4994107;28;20053;-84
2023/04/02 10:01:55;;;;;;;3.22;0.90;;;7.90;99.90;;;;;;4993057;28;20123;-84
2023/04/02 10:04:43;;;;;;;6.05;1.05;;;8.00;99.90;;;;;;4984061;28;20497;-84
2023/04/02 10:07:42;;;;;;;4.43;0.80;;;8.10;99.90;;;;;;4994068;28;20096;-83
2023/04/02 10:10:26;;;;;;;3.65;0.63;;;8.20;99.90;;;;;;4991331;28;20606;-83
2023/04/02 10:13:23;;;;;;;6.83;0.90;;;8.40;99.90;;;;;;4999738;28;20042;-83
2023/04/02 10:16:07;;;;;;;5.15;0.80;;;8.60;99.90;;;;;;4995652;28;20125;-84
2023/04/02 10:18:39;;;;;;;3.85;0.98;;;8.70;99.90;;;;;;4993474;28;20484;-84
2023/04/02 10:21:06;;;;;;;3.13;0.77;;;8.80;99.90;;;;;;4998973;28;20557;-84
2023/04/02 10:23:33;;;;;;;4.03;1.02;;;8.80;99.90;;;;;;4999563;28;20408;-84
2023/04/02 10:26:14;;;;;;;3.53;0.70;;;8.90;99.90;;;;;;4994755;28;20057;-84
2023/04/02 10:29:22;;;;;;;2.90;0.80;;;9.00;99.90;;;;;;4996188;28;20050;-84
2023/04/02 10:31:58;;;;;;;3.78;0.82;;;9.00;99.90;;;;;;5002060;28;20560;-84
2023/04/02 10:34:35;;;;;;;3.28;1.13;;;9.20;99.90;;;;;;4997739;28;20091;-84
2023/04/02 10:37:17;;;;;;;5.45;0.90;;;9.20;99.90;;;;;;5001703;28;20045;-84
2023/04/02 10:39:50;;;;;;;5.20;0.80;;;9.20;99.90;;;;;;4999006;28;20083;-84
2023/04/02 10:42:29;;;;;;;6.28;0.85;;;9.20;99.90;;;;;;4999117;28;20567;-84
2023/04/02 10:45:15;;;;;;;3.83;0.80;;;9.30;99.90;;;;;;4983400;28;20084;-84
2023/04/02 10:47:56;;;;;;;3.55;0.80;;;9.40;99.90;;;;;;4993667;28;20039;-84
2023/04/02 10:50:32;;;;;;;9.15;0.88;;;9.50;99.90;;;;;;4981916;28;20057;-84
2023/04/02 10:53:15;;;;;;;5.70;0.98;;;9.50;99.90;;;;;;4981476;28;20122;-84
2023/04/02 10:56:00;;;;;;;3.33;0.60;;;9.60;99.90;;;;;;4998289;28;20037;-84
2023/04/02 10:58:30;;;;;;;3.88;0.70;;;9.70;99.90;;;;;;5000952;28;20046;-84
2023/04/02 11:01:05;;;;;;;3.90;0.90;;;9.90;99.90;;;;;;5001332;28;20488;-84
2023/04/02 11:03:45;;;;;;;3.03;0.60;;;10.20;99.90;;;;;;5012221;28;20433;-84
2023/04/02 11:06:25;;;;;;;5.20;0.90;;;10.10;99.90;;;;;;5005583;28;20062;-84
2023/04/02 11:08:58;;;;;;;3.05;0.70;;;10.10;99.90;;;;;;5005339;28;20041;-84
2023/04/02 11:11:33;;;;;;;2.40;0.52;;;10.20;99.90;;;;;;4996322;28;20042;-84
2023/04/02 11:14:10;;;;;;;3.85;0.82;;;10.30;99.90;;;;;;4995070;28;20049;-84
2023/04/02 11:16:36;;;;;;;2.53;0.70;;;10.40;99.90;;;;;;5009656;28;20054;-84
2023/04/02 11:19:16;;;;;;;3.88;0.90;;;10.50;99.90;;;;;;5010054;28;20045;-83
2023/04/02 11:21:54;;;;;;;3.13;0.95;;;10.60;99.90;;;;;;5005804;28;20049;-84
2023/04/02 11:24:47;;;;;;;4.72;0.80;;;10.70;99.90;;;;;;5002132;28;20161;-83
2023/04/02 11:27:25;;;;;;;4.95;0.60;;;10.80;99.90;;;;;;5000761;28;20083;-84
2023/04/02 11:30:15;;;;;;;3.03;0.68;;;10.90;99.90;;;;;;4999168;28;20046;-84
2023/04/02 11:32:42;;;;;;;3.55;0.60;;;11.10;99.90;;;;;;4998160;28;20133;-84
2023/04/02 11:35:30;;;;;;;2.10;0.50;;;11.20;99.90;;;;;;5005630;28;20046;-84
2023/04/02 11:38:03;;;;;;;2.70;0.65;;;11.40;99.90;;;;;;5004918;28;20042;-83
2023/04/02 11:40:50;;;;;;;3.17;1.27;;;11.60;99.90;;;;;;4995107;28;20129;-84
2023/04/02 11:43:34;;;;;;;4.35;0.80;;;11.80;99.90;;;;;;5011180;28;20051;-84
2023/04/02 11:46:24;;;;;;;5.55;1.02;;;11.90;99.90;;;;;;4995766;28;20049;-84
2023/04/02 11:48:50;;;;;;;2.15;0.60;;;11.80;99.90;;;;;;4994011;28;20053;-84
2023/04/02 11:51:21;;;;;;;3.63;0.70;;;11.80;99.90;;;;;;5006596;28;20378;-84
2023/04/02 11:53:50;;;;;;;4.70;0.82;;;11.90;99.90;;;;;;5002176;28;20042;-84
2023/04/02 11:56:31;;;;;;;3.53;0.73;;;12.10;99.90;;;;;;4999770;28;20037;-84
2023/04/02 11:59:14;;;;;;;3.80;0.55;;;12.20;99.90;;;;;;4996182;28;20046;-84
2023/04/02 12:02:04;;;;;;;3.03;0.73;;;12.40;99.90;;;;;;4999564;28;20058;-84
2023/04/02 12:04:55;;;;;;;3.63;0.60;;;12.40;99.90;;;;;;4999516;28;20073;-84
2023/04/02 12:07:21;;;;;;;4.78;0.70;;;12.40;99.90;;;;;;4997735;28;20070;-83
2023/04/02 12:09:51;;;;;;;2.50;0.63;;;12.40;99.90;;;;;;4992232;28;20137;-84
2023/04/02 12:12:23;;;;;;;3.97;0.60;;;12.40;99.90;;;;;;4983104;28;20046;-84
2023/04/02 12:14:52;;;;;;;2.88;0.60;;;12.40;99.90;;;;;;5000261;28;20185;-84
2023/04/02 12:17:29;;;;;;;4.63;0.80;;;12.40;99.90;;;;;;4980048;28;20050;-84
2023/04/02 12:20:19;;;;;;;4.18;0.88;;;12.30;99.90;;;;;;4990231;28;20157;-84
2023/04/02 12:22:53;;;;;;;2.40;0.50;;;12.40;99.90;;;;;;4998596;28;20072;-84
2023/04/02 12:25:26;;;;;;;3.53;0.50;;;12.30;99.90;;;;;;5009616;28;20080;-84
2023/04/02 12:28:16;;;;;;;2.33;0.70;;;12.40;99.90;;;;;;4999922;28;20050;-84
2023/04/02 12:30:43;;;;;;;4.75;0.60;;;12.30;99.90;;;;;;4984194;28;20107;-84
2023/04/02 12:33:21;;;;;;;5.15;1.02;;;12.30;99.90;;;;;;4997159;28;20045;-84
2023/04/02 12:35:52;;;;;;;1.55;0.52;;;12.30;99.90;;;;;;4996921;28;20492;-84
2023/04/02 12:38:21;;;;;;;3.35;0.60;;;12.40;99.90;;;;;;4990516;28;20037;-84
2023/04/02 12:41:05;;;;;;;4.97;0.68;;;12.60;99.90;;;;;;4996052;28;20259;-84
2023/04/02 12:43:36;;;;;;;2.88;0.73;;;12.60;99.90;;;;;;5003120;28;20125;-83
2023/04/02 12:46:06;;;;;;;4.25;0.63;;;12.70;99.90;;;;;;4993708;28;20146;-83
2023/04/02 12:48:33;;;;;;;3.38;1.00;;;12.80;99.90;;;;;;4992330;28;20037;-84
2023/04/02 12:51:00;;;;;;;1.13;0.50;;;12.90;99.90;;;;;;4984331;28;20544;-83
2023/04/02 12:53:33;;;;;;;1.45;0.47;;;13.00;99.90;;;;;;4988715;28;20046;-85
2023/04/02 12:56:00;;;;;;;1.70;0.60;;;13.10;99.90;;;;;;4997121;28;20048;-83
2023/04/02 12:58:34;;;;;;;1.85;0.60;;;13.20;99.90;;;;;;5006716;28;20125;-83
2023/04/02 13:01:14;;;;;;;3.33;0.65;;;13.20;99.90;;;;;;5005054;28;20051;-84
2023/04/02 13:03:40;;;;;;;5.35;0.77;;;13.20;99.90;;;;;;4997054;28;20049;-83
2023/04/02 13:06:23;;;;;;;3.90;0.60;;;13.00;99.90;;;;;;4974762;28;20480;-83
2023/04/02 13:08:50;;;;;;;2.10;0.47;;;13.00;99.90;;;;;;5000287;28;20063;-83
2023/04/02 13:11:16;;;;;;;2.40;0.50;;;13.10;99.90;;;;;;5006002;28;20046;-84
2023/04/02 13:13:44;;;;;;;1.80;0.50;;;13.10;99.90;;;;;;4992566;28;20038;-83
2023/04/02 13:16:16;;;;;;;2.60;0.52;;;13.20;99.90;;;;;;5005279;28;20391;-84
2023/04/02 13:18:44;;;;;;;3.03;0.50;;;13.30;99.90;;;;;;5005754;28;20033;-84
2023/04/02 13:21:15;;;;;;;3.22;0.55;;;13.40;99.90;;;;;;4992100;28;20045;-83
2023/04/02 13:23:42;;;;;;;1.65;0.43;;;13.30;99.10;;;;;;4991112;28;20120;-83
2023/04/02 13:26:15;;;;;;;2.70;0.60;;;13.20;99.70;;;;;;4992065;28;20046;-83
2023/04/02 13:28:41;;;;;;;1.80;0.50;;;13.00;99.90;;;;;;4999404;28;20484;-83
2023/04/02 13:31:18;;;;;;;4.45;0.60;;;12.70;99.90;;;;;;5005773;28;20060;-83
2023/04/02 13:33:43;;;;;;;3.30;0.55;;;12.90;99.90;;;;;;4978832;28;20049;-84
2023/04/02 13:36:14;;;;;;;3.65;0.60;;;13.00;99.70;;;;;;4979454;28;20363;-85
2023/04/02 13:38:40;;;;;;;3.08;0.90;;;13.00;99.90;;;;;;5000523;28;20069;-84